createdAt,value
2022-12-01T00:01:02.159Z,2.30
2022-12-01T00:03:32.513Z,2.40
2022-12-01T00:06:05.097Z,2.40
2022-12-01T00:08:32.799Z,2.40
2022-12-01T00:11:06.538Z,2.40
2022-12-01T00:13:34.288Z,2.40
2022-12-01T00:16:15.284Z,2.30
2022-12-01T00:18:42.243Z,2.30
2022-12-01T00:21:20.556Z,2.30
2022-12-01T00:23:48.886Z,2.30
2022-12-01T00:26:17.616Z,2.30
2022-12-01T00:28:44.515Z,2.30
2022-12-01T00:31:12.828Z,2.30
2022-12-01T00:33:39.892Z,2.30
2022-12-01T00:36:07.465Z,2.30
2022-12-01T00:38:34.827Z,2.30
2022-12-01T00:41:01.704Z,2.20
2022-12-01T00:43:28.380Z,2.20
2022-12-01T00:45:55.231Z,2.20
2022-12-01T00:48:22.534Z,2.20
2022-12-01T00:50:51.949Z,2.20
2022-12-01T00:53:18.713Z,2.20
2022-12-01T00:55:45.551Z,2.20
2022-12-01T00:58:12.239Z,2.20
2022-12-01T01:00:38.927Z,2.30
2022-12-01T01:03:07.186Z,2.20
2022-12-01T01:05:37.927Z,2.30
2022-12-01T01:08:08.954Z,2.20
2022-12-01T01:10:40.192Z,2.30
2022-12-01T01:13:07.078Z,2.20
2022-12-01T01:15:34.231Z,2.20
2022-12-01T01:18:01.642Z,2.20
2022-12-01T01:20:28.915Z,2.20
2022-12-01T01:22:55.840Z,2.20
2022-12-01T01:25:22.702Z,2.20
2022-12-01T01:27:49.714Z,2.20
2022-12-01T01:30:16.692Z,2.30
2022-12-01T01:32:43.341Z,2.30
2022-12-01T01:35:10.045Z,2.30
2022-12-01T01:37:36.700Z,2.30
2022-12-01T01:40:03.758Z,2.30
2022-12-01T01:42:30.436Z,2.30
2022-12-01T01:44:58.291Z,2.20
2022-12-01T01:47:30.549Z,2.20
2022-12-01T01:50:00.642Z,2.20
2022-12-01T01:52:28.003Z,2.20
2022-12-01T01:54:56.402Z,2.20
2022-12-01T01:57:32.622Z,2.20
2022-12-01T02:00:13.289Z,2.20
2022-12-01T02:02:41.936Z,2.20
2022-12-01T02:05:11.784Z,2.20
2022-12-01T02:07:40.413Z,2.30
2022-12-01T02:10:09.359Z,2.30
2022-12-01T02:12:41.848Z,2.30
2022-12-01T02:15:32.788Z,2.30
2022-12-01T02:18:30.208Z,2.30
2022-12-01T02:21:02.424Z,2.30
2022-12-01T02:23:47.932Z,2.30
2022-12-01T02:26:41.808Z,2.20
2022-12-01T02:29:29.566Z,2.20
2022-12-01T02:32:26.618Z,2.20
2022-12-01T02:35:03.570Z,2.20
2022-12-01T02:37:57.661Z,2.20
2022-12-01T02:40:30.127Z,2.20
2022-12-01T02:43:09.240Z,2.20
2022-12-01T02:45:51.886Z,2.20
2022-12-01T02:48:36.179Z,2.20
2022-12-01T02:51:26.985Z,2.20
2022-12-01T02:53:56.327Z,2.20
2022-12-01T02:56:23.550Z,2.10
2022-12-01T02:58:50.581Z,2.20
2022-12-01T03:01:38.459Z,2.20
2022-12-01T03:04:14.111Z,2.20
2022-12-01T03:06:45.999Z,2.20
2022-12-01T03:09:17.982Z,2.20
2022-12-01T03:11:59.660Z,2.10
2022-12-01T03:14:36.887Z,2.00
2022-12-01T03:17:11.012Z,2.00
2022-12-01T03:19:43.805Z,2.00
2022-12-01T03:22:19.130Z,2.00
2022-12-01T03:24:47.978Z,2.00
2022-12-01T03:27:17.295Z,2.00
2022-12-01T03:29:47.585Z,2.00
2022-12-01T03:32:29.548Z,2.00
2022-12-01T03:34:58.507Z,2.10
2022-12-01T03:37:41.718Z,2.10
2022-12-01T03:40:14.361Z,2.10
2022-12-01T03:43:09.450Z,2.10
2022-12-01T03:45:59.946Z,2.10
2022-12-01T03:48:27.732Z,2.10
2022-12-01T03:51:00.655Z,2.10
2022-12-01T03:53:36.051Z,2.10
2022-12-01T03:56:06.427Z,2.00
2022-12-01T03:58:44.036Z,2.00
2022-12-01T04:01:12.912Z,2.10
2022-12-01T04:03:39.678Z,2.00
2022-12-01T04:06:06.683Z,2.00
2022-12-01T04:08:33.534Z,2.10
2022-12-01T04:11:00.286Z,2.00
2022-12-01T04:13:26.966Z,2.00
2022-12-01T04:15:54.422Z,2.00
2022-12-01T04:18:21.615Z,2.00
2022-12-01T04:20:49.439Z,2.00
2022-12-01T04:23:16.657Z,2.00
2022-12-01T04:25:43.357Z,2.00
2022-12-01T04:28:10.044Z,2.00
2022-12-01T04:30:36.708Z,2.00
2022-12-01T04:33:03.377Z,1.90
2022-12-01T04:35:30.050Z,1.90
2022-12-01T04:37:56.694Z,1.80
2022-12-01T04:40:23.353Z,1.80
2022-12-01T04:42:50.021Z,1.80
2022-12-01T04:45:16.713Z,1.80
2022-12-01T04:47:43.345Z,1.80
2022-12-01T04:50:10.762Z,1.80
2022-12-01T04:52:37.531Z,1.80
2022-12-01T04:55:04.670Z,1.80
2022-12-01T04:57:31.328Z,1.80
2022-12-01T04:59:57.999Z,1.80
2022-12-01T05:02:24.792Z,1.80
2022-12-01T05:04:51.609Z,1.70
2022-12-01T05:07:18.268Z,1.70
2022-12-01T05:09:44.951Z,1.70
2022-12-01T05:12:11.628Z,1.70
2022-12-01T05:14:38.318Z,1.80
2022-12-01T05:17:05.032Z,1.80
2022-12-01T05:19:31.709Z,1.80
2022-12-01T05:21:58.356Z,1.80
2022-12-01T05:24:25.704Z,1.80
2022-12-01T05:26:52.436Z,1.80
2022-12-01T05:29:19.247Z,1.80
2022-12-01T05:31:46.703Z,1.80
2022-12-01T05:34:13.543Z,1.80
2022-12-01T05:36:40.308Z,1.80
2022-12-01T05:39:06.987Z,1.80
2022-12-01T05:41:33.704Z,1.80
2022-12-01T05:44:00.385Z,1.80
2022-12-01T05:46:27.144Z,1.80
2022-12-01T05:48:54.067Z,1.90
2022-12-01T05:51:20.753Z,1.80
2022-12-01T05:53:48.618Z,1.80
2022-12-01T05:56:15.340Z,1.90
2022-12-01T05:58:41.997Z,1.80
2022-12-01T06:01:08.732Z,1.80
2022-12-01T06:03:35.420Z,1.80
2022-12-01T06:06:02.424Z,1.80
2022-12-01T06:08:29.081Z,1.80
2022-12-01T06:10:55.867Z,1.80
2022-12-01T06:13:22.601Z,1.80
2022-12-01T06:16:03.694Z,1.80
2022-12-01T06:18:32.678Z,1.80
2022-12-01T06:20:59.327Z,1.80
2022-12-01T06:23:30.161Z,1.80
2022-12-01T06:25:57.590Z,1.70
2022-12-01T06:28:24.340Z,1.70
2022-12-01T06:30:51.028Z,1.70
2022-12-01T06:33:17.685Z,1.80
2022-12-01T06:35:44.383Z,1.70
2022-12-01T06:38:11.041Z,1.80
2022-12-01T06:40:37.691Z,1.70
2022-12-01T06:43:04.438Z,1.80
2022-12-01T06:45:31.354Z,1.70
2022-12-01T06:47:58.240Z,1.80
2022-12-01T06:50:25.455Z,1.80
2022-12-01T06:52:52.142Z,1.80
2022-12-01T06:55:18.836Z,1.80
2022-12-01T06:57:45.570Z,1.80
2022-12-01T07:00:13.152Z,1.80
2022-12-01T07:02:40.174Z,1.80
2022-12-01T07:05:07.233Z,1.80
2022-12-01T07:07:36.510Z,1.80
2022-12-01T07:10:03.448Z,1.80
2022-12-01T07:12:33.152Z,1.80
2022-12-01T07:14:59.898Z,1.80
2022-12-01T07:17:26.564Z,1.80
2022-12-01T07:19:53.270Z,1.90
2022-12-01T07:22:20.010Z,1.80
2022-12-01T07:24:46.916Z,1.80
2022-12-01T07:27:13.569Z,1.80
2022-12-01T07:29:40.291Z,1.90
2022-12-01T07:32:06.963Z,1.90
2022-12-01T07:34:33.683Z,1.90
2022-12-01T07:37:00.413Z,1.90
2022-12-01T07:39:27.087Z,1.90
2022-12-01T07:41:54.031Z,1.90
2022-12-01T07:44:20.745Z,1.90
2022-12-01T07:46:47.459Z,1.90
2022-12-01T07:49:14.142Z,1.90
2022-12-01T07:51:41.098Z,2.00
2022-12-01T07:54:07.865Z,2.00
2022-12-01T07:56:34.755Z,2.00
2022-12-01T07:59:01.482Z,2.00
2022-12-01T08:01:28.262Z,2.00
2022-12-01T08:03:57.859Z,2.10
2022-12-01T08:06:26.138Z,2.10
2022-12-01T08:08:52.931Z,2.10
2022-12-01T08:11:25.431Z,2.10
2022-12-01T08:13:53.205Z,2.20
2022-12-01T08:16:21.575Z,2.10
2022-12-01T08:18:48.275Z,2.10
2022-12-01T08:21:17.650Z,2.10
2022-12-01T08:23:44.908Z,2.20
2022-12-01T08:26:15.054Z,2.20
2022-12-01T08:28:42.117Z,2.20
2022-12-01T08:31:10.011Z,2.20
2022-12-01T08:33:37.039Z,2.20
2022-12-01T08:36:05.229Z,2.20
2022-12-01T08:38:32.201Z,2.20
2022-12-01T08:41:03.480Z,2.20
2022-12-01T08:46:17.174Z,2.20
2022-12-01T08:48:43.909Z,2.20
2022-12-01T08:51:18.895Z,2.20
2022-12-01T08:53:47.890Z,2.20
2022-12-01T08:56:16.649Z,2.20
2022-12-01T08:58:43.395Z,2.20
2022-12-01T09:01:12.904Z,2.20
2022-12-01T09:03:40.499Z,2.30
2022-12-01T09:06:13.754Z,2.20
2022-12-01T09:08:40.784Z,2.30
2022-12-01T09:11:11.687Z,2.20
2022-12-01T09:13:39.482Z,2.30
2022-12-01T09:16:10.205Z,2.30
2022-12-01T09:18:37.483Z,2.30
2022-12-01T09:21:22.854Z,2.30
2022-12-01T09:23:50.160Z,2.30
2022-12-01T09:26:18.200Z,2.30
2022-12-01T09:28:49.443Z,2.40
2022-12-01T09:31:17.357Z,2.40
2022-12-01T09:33:44.613Z,2.40
2022-12-01T09:36:11.644Z,2.30
2022-12-01T09:38:39.404Z,2.40
2022-12-01T09:41:24.085Z,2.40
2022-12-01T09:44:18.407Z,2.40
2022-12-01T09:46:57.767Z,2.30
2022-12-01T09:49:35.048Z,2.40
2022-12-01T09:52:01.871Z,2.40
2022-12-01T09:54:29.443Z,2.40
2022-12-01T09:56:56.344Z,2.40
2022-12-01T09:59:27.221Z,2.40
2022-12-01T10:01:58.049Z,2.50
2022-12-01T10:04:39.968Z,2.50
2022-12-01T10:07:29.661Z,2.50
2022-12-01T10:10:03.648Z,2.50
2022-12-01T10:12:32.770Z,2.50
2022-12-01T10:15:43.559Z,2.50
2022-12-01T10:18:28.213Z,2.50
2022-12-01T10:21:08.794Z,2.50
2022-12-01T10:24:08.467Z,2.50
2022-12-01T10:26:54.649Z,2.40
2022-12-01T10:29:57.587Z,2.50
2022-12-01T10:32:36.144Z,2.50
2022-12-01T10:35:02.933Z,2.60
2022-12-01T10:37:31.192Z,2.50
2022-12-01T10:39:58.956Z,2.70
2022-12-01T10:42:34.353Z,2.70
2022-12-01T10:45:06.209Z,2.70
2022-12-01T10:47:33.156Z,2.70
2022-12-01T10:49:59.819Z,2.80
2022-12-01T10:52:34.363Z,2.70
2022-12-01T10:55:03.039Z,2.70
2022-12-01T10:57:31.694Z,2.80
2022-12-01T11:00:06.260Z,2.70
2022-12-01T11:02:33.335Z,2.70
2022-12-01T11:05:20.580Z,2.80
2022-12-01T11:07:47.996Z,2.70
2022-12-01T11:10:27.406Z,2.70
2022-12-01T11:13:05.149Z,2.70
2022-12-01T11:15:38.106Z,2.70
2022-12-01T11:18:19.333Z,2.80
2022-12-01T11:20:46.131Z,2.80
2022-12-01T11:23:18.972Z,2.80
2022-12-01T11:26:16.221Z,2.80
2022-12-01T11:28:53.746Z,2.80
2022-12-01T11:31:26.058Z,2.70
2022-12-01T11:33:54.897Z,2.70
2022-12-01T11:36:45.647Z,2.70
2022-12-01T11:39:34.643Z,2.80
2022-12-01T11:42:24.929Z,2.80
2022-12-01T11:44:59.053Z,2.70
2022-12-01T11:47:27.599Z,2.80
2022-12-01T11:49:58.608Z,2.80
2022-12-01T11:52:31.842Z,2.80
2022-12-01T11:55:13.365Z,2.80
2022-12-01T11:57:44.034Z,2.80
2022-12-01T12:00:22.136Z,2.80
2022-12-01T12:03:16.273Z,2.80
2022-12-01T12:06:31.906Z,2.80
2022-12-01T12:08:51.867Z,2.80
2022-12-01T12:11:30.611Z,2.80
2022-12-01T12:14:03.261Z,2.80
2022-12-01T12:16:57.354Z,2.80
2022-12-01T12:20:07.278Z,2.90
2022-12-01T12:22:53.903Z,2.80
2022-12-01T12:25:37.015Z,2.80
2022-12-01T12:28:18.297Z,2.90
2022-12-01T12:31:16.063Z,2.90
2022-12-01T12:33:52.764Z,2.90
2022-12-01T12:36:46.871Z,2.80
2022-12-01T12:39:22.196Z,2.90
2022-12-01T12:41:54.933Z,2.80
2022-12-01T12:44:57.737Z,2.80
2022-12-01T12:47:48.568Z,2.80
2022-12-01T12:50:26.483Z,2.80
2022-12-01T12:53:04.388Z,2.80
2022-12-01T12:55:39.477Z,2.80
2022-12-01T12:58:33.125Z,2.80
2022-12-01T13:01:12.159Z,2.80
2022-12-01T13:03:51.448Z,2.70
2022-12-01T13:06:29.964Z,2.70
2022-12-01T13:09:02.685Z,2.70
2022-12-01T13:11:32.091Z,2.70
2022-12-01T13:14:26.225Z,2.70
2022-12-01T13:16:57.891Z,2.70
2022-12-01T13:19:35.585Z,2.70
2022-12-01T13:22:04.048Z,2.70
2022-12-01T13:24:31.199Z,2.70
2022-12-01T13:27:04.605Z,2.70
2022-12-01T13:29:40.982Z,2.70
2022-12-01T13:32:27.476Z,2.80
2022-12-01T13:34:54.277Z,2.80
2022-12-01T13:37:33.469Z,2.80
2022-12-01T13:40:23.930Z,2.80
2022-12-01T13:43:05.467Z,2.70
2022-12-01T13:45:38.074Z,2.70
2022-12-01T13:48:06.928Z,2.70
2022-12-01T13:50:42.498Z,2.70
2022-12-01T13:53:27.246Z,2.80
2022-12-01T13:55:58.858Z,2.80
2022-12-01T13:58:30.545Z,2.80
2022-12-01T14:01:20.216Z,2.80
2022-12-01T14:04:20.395Z,2.80
2022-12-01T14:06:49.809Z,2.80
2022-12-01T14:09:38.946Z,2.80
2022-12-01T14:12:13.713Z,2.80
2022-12-01T14:14:46.374Z,2.70
2022-12-01T14:17:34.730Z,2.70
2022-12-01T14:20:13.857Z,2.80
2022-12-01T14:22:43.650Z,2.80
2022-12-01T14:25:25.321Z,2.80
2022-12-01T14:27:54.750Z,2.80
2022-12-01T14:30:39.824Z,2.80
2022-12-01T14:33:43.199Z,2.80
2022-12-01T14:36:30.900Z,2.80
2022-12-01T14:38:57.491Z,2.80
2022-12-01T14:41:34.555Z,2.80
2022-12-01T14:44:33.203Z,2.80
2022-12-01T14:47:02.104Z,2.80
2022-12-01T14:49:41.877Z,2.80
2022-12-01T14:52:28.789Z,2.80
2022-12-01T14:54:58.690Z,2.80
2022-12-01T14:57:34.401Z,2.70
2022-12-01T15:00:06.106Z,2.70
2022-12-01T15:02:33.067Z,2.70
2022-12-01T15:05:18.468Z,2.70
2022-12-01T15:07:51.496Z,2.80
2022-12-01T15:10:25.812Z,2.80
2022-12-01T15:12:53.799Z,2.80
2022-12-01T15:15:24.364Z,2.70
2022-12-01T15:17:55.159Z,2.70
2022-12-01T15:20:30.623Z,2.70
2022-12-01T15:22:58.825Z,2.70
2022-12-01T15:25:29.510Z,2.70
2022-12-01T15:28:17.028Z,2.70
2022-12-01T15:30:47.903Z,2.70
2022-12-01T15:33:36.731Z,2.70
2022-12-01T15:36:04.883Z,2.70
2022-12-01T15:38:35.583Z,2.70
2022-12-01T15:41:28.357Z,2.70
2022-12-01T15:43:56.252Z,2.70
2022-12-01T15:46:35.319Z,2.60
2022-12-01T15:49:08.887Z,2.60
2022-12-01T15:51:35.749Z,2.60
2022-12-01T15:54:03.356Z,2.50
2022-12-01T15:56:33.457Z,2.60
2022-12-01T15:59:07.817Z,2.60
2022-12-01T16:01:35.999Z,2.60
2022-12-01T16:04:16.270Z,2.60
2022-12-01T16:06:51.478Z,2.60
2022-12-01T16:09:23.783Z,2.50
2022-12-01T16:12:05.594Z,2.50
2022-12-01T16:14:35.853Z,2.50
2022-12-01T16:17:08.855Z,2.50
2022-12-01T16:19:38.045Z,2.50
2022-12-01T16:22:12.244Z,2.50
2022-12-01T16:24:48.991Z,2.50
2022-12-01T16:27:27.922Z,2.50
2022-12-01T16:29:57.610Z,2.50
2022-12-01T16:32:35.541Z,2.50
2022-12-01T16:35:02.398Z,2.40
2022-12-01T16:37:29.349Z,2.40
2022-12-01T16:39:56.443Z,2.40
2022-12-01T16:42:23.233Z,2.40
2022-12-01T16:44:51.266Z,2.40
2022-12-01T16:47:22.573Z,2.40
2022-12-01T16:49:49.423Z,2.40
2022-12-01T16:52:43.109Z,2.40
2022-12-01T16:55:02.933Z,2.40
2022-12-01T16:57:29.618Z,2.40
2022-12-01T16:59:56.290Z,2.40
2022-12-01T17:02:23.049Z,2.30
2022-12-01T17:04:50.011Z,2.30
2022-12-01T17:07:17.012Z,2.30
2022-12-01T17:09:43.757Z,2.30
2022-12-01T17:12:10.417Z,2.30
2022-12-01T17:14:37.110Z,2.30
2022-12-01T17:17:03.817Z,2.30
2022-12-01T17:19:30.692Z,2.30
2022-12-01T17:21:57.476Z,2.20
2022-12-01T17:24:24.478Z,2.20
2022-12-01T17:26:51.206Z,2.20
2022-12-01T17:29:18.366Z,2.20
2022-12-01T17:31:45.160Z,2.20
2022-12-01T17:34:11.859Z,2.20
2022-12-01T17:36:38.525Z,2.20
2022-12-01T17:39:05.300Z,2.20
2022-12-01T17:41:32.072Z,2.30
2022-12-01T17:44:01.723Z,2.30
2022-12-01T17:46:28.464Z,2.30
2022-12-01T17:48:55.395Z,2.30
2022-12-01T17:51:22.221Z,2.30
2022-12-01T17:53:48.940Z,2.30
2022-12-01T17:56:16.826Z,2.30
2022-12-01T17:58:44.284Z,2.30
2022-12-01T18:01:16.299Z,2.30
2022-12-01T18:03:43.358Z,2.30
2022-12-01T18:06:10.239Z,2.30
2022-12-01T18:08:37.750Z,2.30
2022-12-01T18:11:06.929Z,2.30
2022-12-01T18:13:42.128Z,2.30
2022-12-01T18:16:19.993Z,2.30
2022-12-01T18:18:47.325Z,2.40
2022-12-01T18:21:16.329Z,2.40
2022-12-01T18:23:51.852Z,2.40
2022-12-01T18:26:19.927Z,2.40
2022-12-01T18:28:46.755Z,2.40
2022-12-01T18:31:16.000Z,2.40
2022-12-01T18:33:44.555Z,2.40
2022-12-01T18:36:14.318Z,2.40
2022-12-01T18:38:41.143Z,2.40
2022-12-01T18:41:08.223Z,2.40
2022-12-01T18:43:36.538Z,2.40
2022-12-01T18:46:05.366Z,2.30
2022-12-01T18:48:32.844Z,2.30
2022-12-01T18:51:04.927Z,2.40
2022-12-01T18:53:32.246Z,2.40
2022-12-01T18:56:07.189Z,2.40
2022-12-01T18:58:34.339Z,2.40
2022-12-01T19:01:02.058Z,2.40
2022-12-01T19:03:30.179Z,2.40
2022-12-01T19:05:57.098Z,2.40
2022-12-01T19:08:24.159Z,2.40
2022-12-01T19:11:01.195Z,2.40
2022-12-01T19:13:29.389Z,2.40
2022-12-01T19:15:56.192Z,2.40
2022-12-01T19:18:22.957Z,2.40
2022-12-01T19:20:50.554Z,2.40
2022-12-01T19:23:17.207Z,2.40
2022-12-01T19:25:43.949Z,2.40
2022-12-01T19:28:10.586Z,2.40
2022-12-01T19:30:38.168Z,2.40
2022-12-01T19:33:04.856Z,2.50
2022-12-01T19:35:31.664Z,2.50
2022-12-01T19:37:58.418Z,2.50
2022-12-01T19:40:25.055Z,2.50
2022-12-01T19:42:51.888Z,2.50
2022-12-01T19:45:18.560Z,2.50
2022-12-01T19:47:45.245Z,2.50
2022-12-01T19:50:11.973Z,2.40
2022-12-01T19:52:38.680Z,2.40
2022-12-01T19:55:05.760Z,2.40
2022-12-01T19:57:32.476Z,2.30
2022-12-01T19:59:59.203Z,2.40
2022-12-01T20:02:29.198Z,2.40
2022-12-01T20:04:56.277Z,2.40
2022-12-01T20:07:23.080Z,2.40
2022-12-01T20:09:50.320Z,2.40
2022-12-01T20:12:17.479Z,2.40
2022-12-01T20:14:44.150Z,2.40
2022-12-01T20:17:15.963Z,2.40
2022-12-01T20:19:45.718Z,2.40
2022-12-01T20:22:12.822Z,2.40
2022-12-01T20:24:39.595Z,2.50
2022-12-01T20:27:06.668Z,2.50
2022-12-01T20:29:33.713Z,2.50
2022-12-01T20:32:01.456Z,2.50
2022-12-01T20:34:34.876Z,2.50
2022-12-01T20:37:02.011Z,2.50
2022-12-01T20:39:31.123Z,2.50
2022-12-01T20:41:57.851Z,2.40
2022-12-01T20:44:24.564Z,2.40
2022-12-01T20:46:51.280Z,2.40
2022-12-01T20:49:18.101Z,2.50
2022-12-01T20:51:45.638Z,2.40
2022-12-01T20:54:30.254Z,2.50
2022-12-01T20:56:58.116Z,2.50
2022-12-01T20:59:25.352Z,2.40
2022-12-01T21:01:52.011Z,2.40
2022-12-01T21:04:18.791Z,2.40
2022-12-01T21:06:47.980Z,2.40
2022-12-01T21:09:14.654Z,2.40
2022-12-01T21:11:46.999Z,2.40
2022-12-01T21:14:38.933Z,2.40
2022-12-01T21:17:25.375Z,2.50
2022-12-01T21:20:31.254Z,2.40
2022-12-01T21:23:16.559Z,2.40
2022-12-01T21:25:43.674Z,2.40
2022-12-01T21:28:16.728Z,2.40
2022-12-01T21:30:43.713Z,2.40
2022-12-01T21:33:26.185Z,2.40
2022-12-01T21:35:53.442Z,2.50
2022-12-01T21:38:22.079Z,2.40
2022-12-01T21:40:49.137Z,2.50
2022-12-01T21:43:20.953Z,2.50
2022-12-01T21:45:51.555Z,2.50
2022-12-01T21:48:21.081Z,2.40
2022-12-01T21:50:52.405Z,2.40
2022-12-01T21:53:25.216Z,2.40
2022-12-01T21:55:51.909Z,2.40
2022-12-01T21:58:29.955Z,2.40
2022-12-01T22:00:58.966Z,2.40
2022-12-01T22:03:29.095Z,2.40
2022-12-01T22:06:35.781Z,2.40
2022-12-01T22:09:22.502Z,2.50
2022-12-01T22:12:01.539Z,2.50
2022-12-01T22:14:32.870Z,2.50
2022-12-01T22:17:20.289Z,2.50
2022-12-01T22:20:00.531Z,2.40
2022-12-01T22:22:29.237Z,2.40
2022-12-01T22:25:19.644Z,2.40
2022-12-01T22:27:46.337Z,2.40
2022-12-01T22:30:21.610Z,2.40
2022-12-01T22:32:59.698Z,2.40
2022-12-01T22:35:38.630Z,2.40
2022-12-01T22:38:08.160Z,2.40
2022-12-01T22:40:40.486Z,2.40
2022-12-01T22:43:19.225Z,2.40
2022-12-01T22:46:01.848Z,2.40
2022-12-01T22:48:42.034Z,2.40
2022-12-01T22:51:17.491Z,2.50
2022-12-01T22:53:46.003Z,2.40
2022-12-01T22:56:39.167Z,2.40
2022-12-01T22:59:37.618Z,2.40
2022-12-01T23:02:33.338Z,2.40
2022-12-01T23:05:21.500Z,2.40
2022-12-01T23:07:48.290Z,2.40
2022-12-01T23:10:21.339Z,2.30
2022-12-01T23:12:50.272Z,2.40
2022-12-01T23:15:25.671Z,2.30
2022-12-01T23:17:52.407Z,2.40
2022-12-01T23:20:34.960Z,2.40
2022-12-01T23:23:10.562Z,2.40
2022-12-01T23:25:37.154Z,2.30
2022-12-01T23:28:08.267Z,2.30
2022-12-01T23:30:37.058Z,2.30
2022-12-01T23:33:09.734Z,2.40
2022-12-01T23:35:47.306Z,2.40
2022-12-01T23:38:20.750Z,2.40
2022-12-01T23:40:48.546Z,2.40
2022-12-01T23:43:43.174Z,2.40
2022-12-01T23:46:22.219Z,2.40
2022-12-01T23:48:53.025Z,2.40
2022-12-01T23:51:28.685Z,2.40
2022-12-01T23:53:55.910Z,2.40
2022-12-01T23:56:28.307Z,2.40
2022-12-01T23:58:56.553Z,2.40
